Hyattsville, Maryland
Current Conditions -  °F | °C
As of 11:10 PM on Thursday 20 Nov 2014 (Local Time) from KCGS Reporting Station
Clear Clear  
Wind Chill: 29°   Ceiling: Unl
Heat Index: 36°   Visibility: 10mi
Dew Point:   Wind: 9mph
Humidity: 33%   Direction: 320°NW
Pressure: 30.09"   Gusts: 18mph
Location:  38.95°N, 76.94°W
Report Text: KCGS 210410Z AUTO 32008G16KT 10SM CLR 02/M13 A3009 RMK AO1
Loading
Personal Weather Stations






























Interactive Weather Map New forecast layout! Learn more

10-Day Weather Forecast

Advertisements
Track Severe Weather on mobile